createdAt,value
2023-02-21T00:00:23.180Z,10.20
2023-02-21T00:05:44.898Z,10.10
2023-02-21T00:11:05.740Z,10.00
2023-02-21T00:16:26.032Z,10.00
2023-02-21T00:21:48.384Z,9.80
2023-02-21T00:27:08.734Z,9.80
2023-02-21T00:32:29.381Z,9.70
2023-02-21T00:37:51.401Z,9.60
2023-02-21T00:43:11.714Z,9.50
2023-02-21T00:48:32.386Z,9.50
2023-02-21T00:53:54.303Z,9.40
2023-02-21T00:59:15.084Z,9.30
2023-02-21T01:04:35.703Z,9.30
2023-02-21T01:09:57.558Z,9.20
2023-02-21T01:15:18.435Z,9.10
2023-02-21T01:20:39.055Z,9.10
2023-02-21T01:26:00.982Z,9.00
2023-02-21T01:31:21.429Z,9.00
2023-02-21T01:36:42.436Z,8.90
2023-02-21T01:42:04.669Z,8.80
2023-02-21T01:47:29.419Z,8.70
2023-02-21T01:52:50.427Z,8.50
2023-02-21T01:58:13.600Z,8.40
2023-02-21T02:03:37.080Z,8.30
2023-02-21T02:08:57.458Z,8.20
2023-02-21T02:14:18.403Z,8.10
2023-02-21T02:19:58.198Z,8.00
2023-02-21T02:25:19.475Z,8.00
2023-02-21T02:30:59.565Z,8.00
2023-02-21T02:36:09.381Z,8.00
2023-02-21T02:41:17.186Z,8.00
2023-02-21T02:46:24.635Z,8.00
2023-02-21T02:51:29.872Z,8.00
2023-02-21T02:56:35.291Z,7.90
2023-02-21T03:01:57.061Z,7.80
2023-02-21T03:07:08.704Z,7.70
2023-02-21T03:12:19.238Z,7.70
2023-02-21T03:17:25.931Z,7.80
2023-02-21T03:22:32.274Z,7.80
2023-02-21T03:27:36.853Z,7.80
2023-02-21T03:32:44.165Z,7.70
2023-02-21T03:37:52.409Z,7.60
2023-02-21T03:42:57.356Z,7.60
2023-02-21T03:48:00.498Z,7.50
2023-02-21T03:53:05.226Z,7.40
2023-02-21T03:58:08.302Z,7.30
2023-02-21T04:03:11.802Z,7.30
2023-02-21T04:08:16.452Z,7.30
2023-02-21T04:13:21.279Z,7.20
2023-02-21T04:18:24.440Z,7.20
2023-02-21T04:23:28.904Z,7.20
2023-02-21T04:28:32.019Z,7.10
2023-02-21T04:33:35.143Z,7.00
2023-02-21T04:38:39.582Z,7.00
2023-02-21T04:43:44.038Z,7.00
2023-02-21T04:48:49.358Z,7.00
2023-02-21T04:53:55.481Z,7.00
2023-02-21T04:58:59.012Z,7.00
2023-02-21T05:04:02.761Z,7.00
2023-02-21T05:09:07.297Z,7.00
2023-02-21T05:14:10.929Z,7.00
2023-02-21T05:19:14.091Z,7.00
2023-02-21T05:24:18.590Z,7.00
2023-02-21T05:29:21.878Z,7.00
2023-02-21T05:34:25.080Z,7.00
2023-02-21T05:39:29.569Z,6.90
2023-02-21T05:44:32.667Z,6.90
2023-02-21T05:49:38.872Z,6.90
2023-02-21T05:54:43.432Z,6.80
2023-02-21T05:59:48.191Z,6.80
2023-02-21T06:04:51.307Z,6.70
2023-02-21T06:09:55.775Z,6.70
2023-02-21T06:14:59.076Z,6.70
2023-02-21T06:20:07.816Z,6.60
2023-02-21T06:25:13.040Z,6.60
2023-02-21T06:30:16.283Z,6.50
2023-02-21T06:35:19.647Z,6.50
2023-02-21T06:40:24.144Z,6.50
2023-02-21T06:45:27.302Z,6.40
2023-02-21T06:50:31.456Z,6.40
2023-02-21T06:55:35.918Z,6.40
2023-02-21T07:00:38.988Z,6.50
2023-02-21T07:05:42.092Z,6.50
2023-02-21T07:10:46.762Z,6.50
2023-02-21T07:15:49.904Z,6.50
2023-02-21T07:20:52.984Z,6.50
2023-02-21T07:25:57.452Z,6.60
2023-02-21T07:31:00.638Z,6.70
2023-02-21T07:36:03.731Z,6.70
2023-02-21T07:41:08.302Z,6.80
2023-02-21T07:46:12.340Z,7.00
2023-02-21T07:51:16.105Z,7.10
2023-02-21T07:56:20.793Z,7.30
2023-02-21T08:01:25.683Z,7.50
2023-02-21T08:06:28.908Z,7.70
2023-02-21T08:11:34.222Z,7.90
2023-02-21T08:16:37.564Z,8.20
2023-02-21T08:21:45.843Z,8.50
2023-02-21T08:26:50.521Z,8.80
2023-02-21T08:31:53.621Z,9.10
2023-02-21T08:36:57.434Z,9.40
2023-02-21T08:42:01.987Z,9.80
2023-02-21T08:47:05.118Z,10.10
2023-02-21T08:52:08.655Z,10.40
2023-02-21T08:57:13.241Z,10.70
2023-02-21T09:02:17.719Z,11.00
2023-02-21T09:07:23.102Z,11.30
2023-02-21T09:12:27.630Z,11.60
2023-02-21T09:17:33.807Z,11.90
2023-02-21T09:22:36.949Z,12.20
2023-02-21T09:27:43.706Z,12.40
2023-02-21T09:32:46.868Z,12.70
2023-02-21T09:37:50.036Z,13.00
2023-02-21T09:42:56.806Z,13.30
2023-02-21T09:48:03.019Z,13.50
2023-02-21T09:53:06.254Z,13.70
2023-02-21T09:58:14.317Z,13.80
2023-02-21T10:03:47.035Z,13.90
2023-02-21T10:08:57.832Z,14.00
2023-02-21T10:14:12.014Z,14.10
2023-02-21T10:19:20.935Z,14.30
2023-02-21T10:24:25.932Z,14.50
2023-02-21T10:29:39.327Z,14.60
2023-02-21T10:34:47.225Z,14.70
2023-02-21T10:39:53.973Z,14.80
2023-02-21T10:44:59.905Z,15.00
2023-02-21T10:50:06.091Z,15.10
2023-02-21T10:55:31.445Z,15.20
2023-02-21T11:00:38.680Z,15.30
2023-02-21T11:05:41.978Z,15.40
2023-02-21T11:10:45.913Z,15.50
2023-02-21T11:16:08.169Z,15.60
2023-02-21T11:21:16.878Z,15.70
2023-02-21T11:26:20.659Z,15.70
2023-02-21T11:31:30.152Z,15.80
2023-02-21T11:36:34.962Z,15.80
2023-02-21T11:41:45.965Z,15.80
2023-02-21T11:46:54.737Z,15.80
2023-02-21T11:52:01.308Z,16.00
2023-02-21T11:57:10.230Z,16.10
2023-02-21T12:02:51.989Z,16.20
2023-02-21T12:08:38.739Z,16.20
2023-02-21T12:13:51.248Z,16.20
2023-02-21T12:19:09.760Z,16.30
2023-02-21T12:24:27.739Z,16.50
2023-02-21T12:29:43.341Z,16.50
2023-02-21T12:35:22.069Z,16.60
2023-02-21T12:40:35.867Z,16.70
2023-02-21T12:45:50.671Z,16.70
2023-02-21T12:50:59.333Z,16.70
2023-02-21T12:56:10.349Z,16.80
2023-02-21T13:01:20.836Z,16.80
2023-02-21T13:06:31.519Z,16.80
2023-02-21T13:11:43.105Z,16.90
2023-02-21T13:16:46.794Z,16.90
2023-02-21T13:22:03.478Z,17.00
2023-02-21T13:27:48.959Z,17.00
2023-02-21T13:32:55.435Z,17.10
2023-02-21T13:38:00.249Z,17.10
2023-02-21T13:43:11.296Z,17.20
2023-02-21T13:48:32.031Z,17.20
2023-02-21T13:54:10.142Z,17.30
2023-02-21T13:59:34.166Z,17.40
2023-02-21T14:05:03.277Z,17.40
2023-02-21T14:10:21.123Z,17.40
2023-02-21T14:15:42.649Z,17.50
2023-02-21T14:20:50.070Z,17.50
2023-02-21T14:26:00.150Z,17.60
2023-02-21T14:31:05.204Z,17.60
2023-02-21T14:36:15.032Z,17.60
2023-02-21T14:41:37.681Z,17.60
2023-02-21T14:47:14.068Z,17.70
2023-02-21T14:53:06.721Z,17.80
2023-02-21T14:58:54.458Z,17.80
2023-02-21T15:04:06.283Z,17.80
2023-02-21T15:09:13.905Z,17.90
2023-02-21T15:14:25.703Z,18.00
2023-02-21T15:19:32.921Z,18.00
2023-02-21T15:24:36.064Z,18.00
2023-02-21T15:29:39.335Z,18.00
2023-02-21T15:34:46.556Z,18.00
2023-02-21T15:39:55.412Z,18.00
2023-02-21T15:45:02.061Z,18.00
2023-02-21T15:50:13.893Z,18.00
2023-02-21T15:55:28.728Z,17.90
2023-02-21T16:00:33.573Z,17.90
2023-02-21T16:05:38.206Z,17.90
2023-02-21T16:10:41.893Z,17.80
2023-02-21T16:15:45.031Z,17.80
2023-02-21T16:21:00.605Z,17.80
2023-02-21T16:26:20.956Z,17.70
2023-02-21T16:31:28.992Z,17.60
2023-02-21T16:36:35.152Z,17.50
2023-02-21T16:41:38.296Z,17.40
2023-02-21T16:46:41.781Z,17.30
2023-02-21T16:51:46.306Z,17.30
2023-02-21T16:56:52.480Z,17.20
2023-02-21T17:01:55.629Z,17.00
2023-02-21T17:07:03.434Z,16.80
2023-02-21T17:12:07.037Z,16.70
2023-02-21T17:17:10.197Z,16.50
2023-02-21T17:22:14.682Z,16.40
2023-02-21T17:27:17.797Z,16.30
2023-02-21T17:32:20.948Z,16.20
2023-02-21T17:37:25.411Z,16.10
2023-02-21T17:42:28.514Z,16.00
2023-02-21T17:47:31.575Z,15.90
2023-02-21T17:52:36.095Z,15.70
2023-02-21T17:57:40.717Z,15.60
2023-02-21T18:02:43.878Z,15.50
2023-02-21T18:07:49.944Z,15.40
2023-02-21T18:12:53.544Z,15.30
2023-02-21T18:17:56.703Z,15.10
2023-02-21T18:23:03.236Z,15.00
2023-02-21T18:28:06.350Z,14.90
2023-02-21T18:33:09.476Z,14.80
2023-02-21T18:38:16.004Z,14.70
2023-02-21T18:43:21.427Z,14.60
2023-02-21T18:48:26.086Z,14.50
2023-02-21T18:53:30.669Z,14.40
2023-02-21T18:58:33.775Z,14.20
2023-02-21T19:03:36.897Z,14.10
2023-02-21T19:08:41.443Z,14.00
2023-02-21T19:13:47.291Z,13.90
2023-02-21T19:18:51.471Z,13.70
2023-02-21T19:23:55.926Z,13.50
2023-02-21T19:28:59.194Z,13.40
2023-02-21T19:34:02.316Z,13.30
2023-02-21T19:39:07.204Z,13.20
2023-02-21T19:44:10.319Z,13.00
2023-02-21T19:49:17.970Z,12.90
2023-02-21T19:54:26.990Z,12.70
2023-02-21T19:59:30.063Z,12.60
2023-02-21T20:04:33.763Z,12.40
2023-02-21T20:09:38.480Z,12.40
2023-02-21T20:14:46.005Z,12.40
2023-02-21T20:19:49.137Z,12.30
2023-02-21T20:24:53.635Z,12.20
2023-02-21T20:29:56.781Z,12.10
2023-02-21T20:34:59.888Z,12.00
2023-02-21T20:40:06.213Z,11.90
2023-02-21T20:45:11.516Z,11.90
2023-02-21T20:50:14.674Z,11.80
2023-02-21T20:55:22.271Z,11.80
2023-02-21T21:00:30.380Z,11.70
2023-02-21T21:05:33.754Z,11.70
2023-02-21T21:10:38.378Z,11.60
2023-02-21T21:15:42.391Z,11.60
2023-02-21T21:20:45.533Z,11.60
2023-02-21T21:25:50.006Z,11.50
2023-02-21T21:30:53.101Z,11.40
2023-02-21T21:35:58.621Z,11.30
2023-02-21T21:41:13.228Z,11.30
2023-02-21T21:46:16.429Z,11.20
2023-02-21T21:51:19.608Z,11.20
2023-02-21T21:56:27.305Z,11.10
2023-02-21T22:01:31.011Z,11.00
2023-02-21T22:06:34.096Z,10.90
2023-02-21T22:11:38.540Z,10.70
2023-02-21T22:16:43.208Z,10.60
2023-02-21T22:21:47.706Z,10.60
2023-02-21T22:26:53.166Z,10.60
2023-02-21T22:31:56.311Z,10.50
2023-02-21T22:36:59.638Z,10.40
2023-02-21T22:42:08.936Z,10.30
2023-02-21T22:47:12.473Z,10.20
2023-02-21T22:52:15.739Z,10.10
2023-02-21T22:57:20.196Z,10.10
2023-02-21T23:02:23.486Z,10.00
2023-02-21T23:07:26.750Z,9.90
2023-02-21T23:12:31.325Z,9.80
2023-02-21T23:17:34.471Z,9.70
2023-02-21T23:22:37.535Z,9.60
2023-02-21T23:27:41.972Z,9.60
2023-02-21T23:32:45.646Z,9.50
2023-02-21T23:37:49.197Z,9.40
2023-02-21T23:42:55.889Z,9.40
2023-02-21T23:47:58.971Z,9.40
2023-02-21T23:53:02.475Z,9.40
2023-02-21T23:58:10.575Z,9.40
